createdAt,value
2018-09-27T00:01:30.622Z,83.20
2018-09-27T00:06:31.795Z,83.20
2018-09-27T00:08:59.476Z,83.20
2018-09-27T00:11:27.229Z,83.30
2018-09-27T00:13:54.973Z,83.40
2018-09-27T00:16:22.812Z,83.20
2018-09-27T00:18:50.649Z,83.10
2018-09-27T00:21:18.522Z,83.20
2018-09-27T00:23:46.273Z,83.30
2018-09-27T00:26:14.337Z,83.80
2018-09-27T00:28:42.152Z,83.20
2018-09-27T00:31:09.781Z,83.20
2018-09-27T00:33:37.419Z,83.20
2018-09-27T00:36:05.182Z,83.20
2018-09-27T00:38:32.837Z,83.40
2018-09-27T00:41:00.558Z,83.70
2018-09-27T00:43:28.305Z,83.40
2018-09-27T00:45:56.117Z,83.30
2018-09-27T00:48:24.170Z,83.20
2018-09-27T00:50:52.081Z,83.30
2018-09-27T00:53:19.777Z,83.80
2018-09-27T00:55:47.601Z,83.00
2018-09-27T00:58:15.232Z,83.00
2018-09-27T01:00:43.172Z,82.90
2018-09-27T01:03:10.836Z,83.00
2018-09-27T01:05:38.657Z,83.30
2018-09-27T01:08:06.415Z,83.50
2018-09-27T01:10:34.102Z,83.80
2018-09-27T01:13:01.868Z,83.60
2018-09-27T01:15:29.510Z,83.50
2018-09-27T01:17:57.175Z,83.30
2018-09-27T01:20:24.868Z,84.50
2018-09-27T01:22:52.626Z,84.80
2018-09-27T01:25:20.709Z,84.80
2018-09-27T01:27:48.421Z,85.00
2018-09-27T01:30:16.181Z,85.00
2018-09-27T01:32:43.846Z,84.70
2018-09-27T01:35:11.604Z,85.20
2018-09-27T01:37:39.401Z,84.60
2018-09-27T01:40:07.284Z,84.70
2018-09-27T01:42:35.290Z,84.80
2018-09-27T01:45:03.326Z,84.90
2018-09-27T01:47:31.248Z,85.20
2018-09-27T01:49:59.080Z,85.50
2018-09-27T01:52:26.881Z,85.80
2018-09-27T01:54:54.657Z,85.80
2018-09-27T01:57:22.411Z,85.90
2018-09-27T01:59:50.243Z,85.90
2018-09-27T02:02:17.996Z,86.40
2018-09-27T02:04:45.873Z,86.70
2018-09-27T02:07:13.829Z,87.10
2018-09-27T02:09:41.610Z,86.70
2018-09-27T02:12:09.565Z,86.80
2018-09-27T02:14:37.417Z,86.60
2018-09-27T02:17:05.361Z,86.40
2018-09-27T02:19:33.410Z,86.40
2018-09-27T02:22:01.253Z,86.20
2018-09-27T02:24:28.974Z,85.90
2018-09-27T02:26:56.933Z,85.80
2018-09-27T02:29:24.797Z,86.30
2018-09-27T02:31:52.611Z,86.50
2018-09-27T02:34:20.470Z,87.20
2018-09-27T02:36:48.349Z,87.10
2018-09-27T02:39:16.302Z,87.00
2018-09-27T02:41:44.329Z,86.80
2018-09-27T02:44:12.152Z,87.00
2018-09-27T02:46:39.992Z,87.00
2018-09-27T02:49:08.002Z,87.10
2018-09-27T02:51:35.777Z,86.90
2018-09-27T02:54:03.891Z,86.90
2018-09-27T02:56:31.900Z,87.50
2018-09-27T02:58:59.805Z,87.30
2018-09-27T03:01:27.874Z,86.60
2018-09-27T03:03:55.605Z,86.40
2018-09-27T03:06:23.405Z,86.40
2018-09-27T03:08:51.396Z,86.60
2018-09-27T03:11:19.349Z,86.50
2018-09-27T03:13:47.401Z,86.50
2018-09-27T03:16:15.388Z,86.60
2018-09-27T03:18:43.653Z,86.40
2018-09-27T03:21:11.694Z,86.20
2018-09-27T03:23:39.705Z,86.20
2018-09-27T03:26:07.417Z,85.90
2018-09-27T03:28:35.164Z,85.80
2018-09-27T03:31:03.247Z,85.60
2018-09-27T03:33:31.041Z,85.60
2018-09-27T03:35:58.918Z,85.60
2018-09-27T03:38:26.664Z,85.60
2018-09-27T03:40:54.734Z,85.30
2018-09-27T03:43:22.883Z,85.70
2018-09-27T03:45:50.675Z,85.90
2018-09-27T03:48:18.574Z,86.10
2018-09-27T03:50:46.344Z,86.30
2018-09-27T03:53:14.138Z,86.70
2018-09-27T03:55:42.162Z,86.10
2018-09-27T03:58:10.040Z,86.10
2018-09-27T04:00:39.877Z,86.10
2018-09-27T04:03:07.804Z,86.10
2018-09-27T04:05:35.666Z,85.80
2018-09-27T04:08:03.658Z,85.70
2018-09-27T04:10:31.641Z,85.80
2018-09-27T04:12:59.610Z,85.60
2018-09-27T04:15:27.415Z,85.80
2018-09-27T04:17:55.235Z,85.90
2018-09-27T04:20:23.092Z,85.80
2018-09-27T04:22:50.849Z,85.90
2018-09-27T04:25:18.737Z,85.50
2018-09-27T04:27:46.676Z,85.20
2018-09-27T04:30:14.596Z,84.90
2018-09-27T04:32:42.436Z,85.40
2018-09-27T04:35:10.204Z,86.00
2018-09-27T04:37:38.202Z,86.50
2018-09-27T04:40:06.141Z,87.10
2018-09-27T04:42:33.981Z,87.60
2018-09-27T04:45:02.310Z,87.90
2018-09-27T04:47:32.116Z,88.50
2018-09-27T04:50:00.564Z,88.50
2018-09-27T04:52:28.397Z,88.90
2018-09-27T04:54:56.377Z,88.90
2018-09-27T04:57:24.229Z,89.10
2018-09-27T04:59:52.239Z,89.20
2018-09-27T05:02:20.010Z,89.40
2018-09-27T05:04:48.065Z,89.20
2018-09-27T05:07:15.884Z,88.80
2018-09-27T05:09:43.775Z,88.30
2018-09-27T05:12:11.608Z,87.60
2018-09-27T05:14:39.456Z,87.60
2018-09-27T05:17:07.302Z,87.60
2018-09-27T05:19:35.257Z,87.60
2018-09-27T05:22:03.336Z,87.80
2018-09-27T05:24:31.406Z,87.90
2018-09-27T05:26:59.553Z,87.80
2018-09-27T05:29:27.648Z,87.90
2018-09-27T05:31:55.490Z,87.70
2018-09-27T05:34:23.523Z,87.60
2018-09-27T05:36:51.576Z,88.40
2018-09-27T05:39:25.411Z,88.00
2018-09-27T05:41:53.180Z,88.20
2018-09-27T05:44:20.993Z,88.50
2018-09-27T05:46:49.050Z,89.00
2018-09-27T05:49:16.876Z,88.90
2018-09-27T05:51:44.777Z,89.00
2018-09-27T05:54:12.620Z,89.10
2018-09-27T05:56:40.645Z,88.60
2018-09-27T05:59:08.446Z,87.30
2018-09-27T06:01:36.230Z,87.10
2018-09-27T06:04:03.939Z,87.50
2018-09-27T06:06:31.683Z,88.10
2018-09-27T06:08:59.466Z,86.70
2018-09-27T06:11:27.279Z,86.10
2018-09-27T06:13:54.936Z,86.60
2018-09-27T06:16:22.718Z,86.20
2018-09-27T06:18:50.544Z,85.70
2018-09-27T06:21:18.373Z,85.00
2018-09-27T06:23:46.041Z,84.60
2018-09-27T06:26:14.103Z,85.00
2018-09-27T06:28:42.135Z,85.70
2018-09-27T06:31:09.962Z,86.30
2018-09-27T06:33:37.787Z,86.90
2018-09-27T06:36:05.993Z,87.50
2018-09-27T06:38:33.934Z,87.90
2018-09-27T06:41:01.711Z,88.40
2018-09-27T06:43:29.449Z,88.30
2018-09-27T06:45:57.202Z,87.40
2018-09-27T06:48:25.396Z,87.00
2018-09-27T06:50:53.948Z,86.80
2018-09-27T06:53:21.756Z,87.00
2018-09-27T06:55:49.531Z,86.50
2018-09-27T06:58:17.203Z,85.00
2018-09-27T07:00:44.970Z,84.40
2018-09-27T07:03:12.712Z,82.90
2018-09-27T07:05:40.529Z,82.20
2018-09-27T07:08:08.304Z,81.20
2018-09-27T07:10:36.044Z,80.50
2018-09-27T07:13:03.796Z,79.90
2018-09-27T07:15:31.472Z,79.40
2018-09-27T07:17:59.313Z,79.60
2018-09-27T07:20:27.186Z,78.40
2018-09-27T07:22:54.992Z,78.10
2018-09-27T07:25:22.757Z,78.80
2018-09-27T07:27:50.597Z,77.90
2018-09-27T07:30:18.348Z,77.60
2018-09-27T07:32:46.325Z,77.10
2018-09-27T07:35:14.248Z,76.20
2018-09-27T07:37:41.943Z,75.90
2018-09-27T07:40:09.704Z,75.60
2018-09-27T07:42:37.542Z,74.40
2018-09-27T07:45:05.392Z,74.20
2018-09-27T07:47:33.299Z,73.70
2018-09-27T07:50:01.089Z,72.90
2018-09-27T07:52:29.137Z,72.80
2018-09-27T07:54:57.005Z,72.50
2018-09-27T07:57:24.816Z,73.20
2018-09-27T07:59:53.218Z,72.00
2018-09-27T08:02:21.201Z,70.80
2018-09-27T08:04:49.032Z,71.00
2018-09-27T08:07:17.401Z,71.10
2018-09-27T08:09:45.371Z,70.20
2018-09-27T08:12:13.250Z,71.30
2018-09-27T08:14:41.473Z,70.70
2018-09-27T08:17:09.554Z,69.60
2018-09-27T08:19:37.609Z,69.50
2018-09-27T08:22:06.236Z,67.50
2018-09-27T08:24:34.199Z,67.40
2018-09-27T08:27:02.125Z,68.30
2018-09-27T08:29:30.153Z,67.40
2018-09-27T08:31:58.243Z,67.20
2018-09-27T08:34:26.176Z,66.90
2018-09-27T08:36:54.086Z,66.70
2018-09-27T08:39:21.966Z,67.60
2018-09-27T08:41:49.870Z,66.90
2018-09-27T08:44:17.806Z,65.90
2018-09-27T08:46:45.789Z,67.20
2018-09-27T08:49:13.660Z,65.90
2018-09-27T08:51:41.773Z,66.20
2018-09-27T08:54:09.679Z,66.30
2018-09-27T08:56:37.558Z,65.80
2018-09-27T08:59:05.536Z,65.00
2018-09-27T09:01:34.533Z,64.10
2018-09-27T09:04:02.592Z,63.40
2018-09-27T09:06:30.393Z,61.80
2018-09-27T09:08:59.073Z,62.10
2018-09-27T09:11:27.105Z,60.90
2018-09-27T09:13:56.188Z,61.80
2018-09-27T09:16:24.096Z,63.10
2018-09-27T09:18:52.287Z,64.10
2018-09-27T09:21:20.142Z,63.40
2018-09-27T09:23:49.478Z,62.40
2018-09-27T09:26:17.418Z,60.80
2018-09-27T09:28:45.448Z,60.70
2018-09-27T09:31:13.431Z,61.60
2018-09-27T09:33:41.677Z,60.40
2018-09-27T09:36:09.429Z,59.40
2018-09-27T09:38:37.330Z,60.10
2018-09-27T09:41:05.500Z,60.40
2018-09-27T09:43:33.447Z,59.90
2018-09-27T09:46:02.302Z,59.80
2018-09-27T09:48:30.666Z,59.30
2018-09-27T09:50:58.903Z,60.10
2018-09-27T09:53:27.406Z,59.70
2018-09-27T09:55:55.515Z,59.20
2018-09-27T09:58:23.778Z,58.80
2018-09-27T10:00:52.047Z,59.00
2018-09-27T10:03:20.160Z,58.30
2018-09-27T10:05:48.207Z,57.70
2018-09-27T10:08:16.009Z,57.90
2018-09-27T10:10:43.883Z,58.50
2018-09-27T10:13:11.725Z,59.70
2018-09-27T10:15:39.634Z,59.60
2018-09-27T10:18:08.262Z,58.10
2018-09-27T10:20:36.053Z,58.10
2018-09-27T10:23:03.879Z,58.30
2018-09-27T10:25:31.653Z,58.20
2018-09-27T10:27:59.769Z,57.00
2018-09-27T10:30:27.663Z,56.70
2018-09-27T10:32:55.531Z,57.40
2018-09-27T10:35:23.457Z,57.10
2018-09-27T10:37:51.516Z,57.10
2018-09-27T10:40:19.488Z,56.30
2018-09-27T10:42:47.448Z,55.50
2018-09-27T10:45:15.432Z,55.30
2018-09-27T10:47:43.214Z,54.60
2018-09-27T10:50:11.049Z,54.00
2018-09-27T10:52:38.861Z,53.50
2018-09-27T10:55:06.717Z,52.60
2018-09-27T10:57:34.460Z,52.40
2018-09-27T11:00:02.253Z,53.30
2018-09-27T11:02:30.103Z,53.10
2018-09-27T11:04:57.998Z,53.40
2018-09-27T11:07:25.800Z,51.90
2018-09-27T11:09:53.803Z,51.90
2018-09-27T11:12:21.689Z,50.40
2018-09-27T11:14:49.445Z,50.20
2018-09-27T11:17:17.256Z,49.10
2018-09-27T11:19:45.122Z,49.40
2018-09-27T11:22:12.913Z,46.50
2018-09-27T11:24:40.769Z,48.00
2018-09-27T11:27:08.614Z,47.90
2018-09-27T11:29:41.856Z,46.80
2018-09-27T11:32:15.274Z,48.00
2018-09-27T11:34:43.118Z,48.20
2018-09-27T11:37:10.885Z,48.80
2018-09-27T11:39:38.827Z,48.00
2018-09-27T11:42:06.937Z,49.20
2018-09-27T11:44:34.717Z,48.80
2018-09-27T11:47:02.561Z,48.80
2018-09-27T11:49:30.366Z,49.80
2018-09-27T11:51:58.073Z,50.40
2018-09-27T11:54:25.919Z,48.30
2018-09-27T11:56:53.833Z,48.80
2018-09-27T11:59:21.564Z,50.00
2018-09-27T12:01:49.446Z,50.50
2018-09-27T12:04:17.371Z,50.20
2018-09-27T12:06:45.379Z,48.40
2018-09-27T12:09:13.354Z,49.40
2018-09-27T12:11:41.181Z,51.10
2018-09-27T12:14:09.877Z,50.70
2018-09-27T12:16:37.835Z,49.80
2018-09-27T12:19:05.741Z,49.80
2018-09-27T12:21:33.467Z,48.70
2018-09-27T12:24:01.266Z,50.50
2018-09-27T12:26:29.145Z,50.30
2018-09-27T12:28:57.041Z,50.30
2018-09-27T12:31:24.855Z,49.10
2018-09-27T12:33:52.562Z,47.80
2018-09-27T12:36:20.395Z,47.00
2018-09-27T12:38:48.288Z,48.40
2018-09-27T12:41:16.080Z,47.70
2018-09-27T12:43:43.889Z,48.70
2018-09-27T12:46:11.868Z,49.20
2018-09-27T12:48:39.938Z,50.00
2018-09-27T12:51:07.740Z,47.60
2018-09-27T12:53:35.371Z,47.60
2018-09-27T12:56:03.832Z,48.20
2018-09-27T12:58:31.540Z,47.90
2018-09-27T13:00:59.384Z,46.90
2018-09-27T13:03:27.157Z,46.20
2018-09-27T13:05:54.942Z,46.70
2018-09-27T13:08:22.830Z,47.50
2018-09-27T13:10:50.728Z,48.10
2018-09-27T13:13:18.749Z,47.50
2018-09-27T13:15:46.913Z,45.40
2018-09-27T13:18:15.363Z,44.60
2018-09-27T13:20:43.745Z,44.00
2018-09-27T13:23:11.719Z,40.30
2018-09-27T13:25:39.837Z,41.00
2018-09-27T13:28:07.373Z,42.20
2018-09-27T13:30:35.354Z,40.00
2018-09-27T13:33:03.536Z,40.50
2018-09-27T13:35:31.338Z,39.90
2018-09-27T13:37:59.044Z,39.50
2018-09-27T13:40:27.154Z,40.90
2018-09-27T13:42:55.421Z,41.70
2018-09-27T13:45:23.422Z,41.50
2018-09-27T13:47:51.193Z,38.50
2018-09-27T13:50:19.264Z,36.70
2018-09-27T13:52:47.298Z,37.60
2018-09-27T13:55:15.443Z,37.70
2018-09-27T14:01:31.641Z,33.60
2018-09-27T14:04:14.505Z,35.50
2018-09-27T14:06:42.597Z,35.00
2018-09-27T14:09:10.861Z,34.40
2018-09-27T14:11:39.119Z,34.20
2018-09-27T14:14:08.466Z,31.10
2018-09-27T14:16:41.462Z,29.20
2018-09-27T14:19:12.448Z,30.90
2018-09-27T14:21:40.721Z,30.00
2018-09-27T14:24:08.562Z,28.30
2018-09-27T14:26:36.609Z,28.80
2018-09-27T14:29:04.646Z,28.50
2018-09-27T14:31:33.822Z,29.20
2018-09-27T14:34:01.990Z,28.80
2018-09-27T14:36:30.011Z,29.30
2018-09-27T14:38:58.338Z,29.20
2018-09-27T14:41:26.528Z,27.90
2018-09-27T14:43:54.498Z,28.10
2018-09-27T14:46:22.888Z,27.40
2018-09-27T14:48:50.861Z,27.90
2018-09-27T14:51:20.062Z,27.30
2018-09-27T14:53:48.065Z,26.90
2018-09-27T14:56:16.502Z,26.60
2018-09-27T14:58:44.450Z,26.90
2018-09-27T15:01:13.018Z,27.50
2018-09-27T15:03:41.840Z,27.60
2018-09-27T15:06:16.296Z,27.20
2018-09-27T15:08:46.757Z,27.00
2018-09-27T15:11:15.696Z,26.40
2018-09-27T15:13:43.972Z,26.90
2018-09-27T15:16:12.367Z,27.40
2018-09-27T15:18:40.241Z,27.80
2018-09-27T15:21:09.411Z,27.90
2018-09-27T15:24:52.318Z,28.60
2018-09-27T15:27:20.725Z,28.50
2018-09-27T15:29:52.749Z,30.00
2018-09-27T15:39:25.263Z,32.00
2018-09-27T15:41:53.497Z,33.00
2018-09-27T15:44:21.932Z,32.00
2018-09-27T15:46:49.936Z,32.30
2018-09-27T15:49:17.991Z,33.00
2018-09-27T15:51:46.462Z,33.20
2018-09-27T15:54:19.120Z,33.70
2018-09-27T15:56:47.549Z,32.30
2018-09-27T15:59:15.662Z,32.00
2018-09-27T16:01:43.951Z,32.80
2018-09-27T16:04:11.892Z,33.20
2018-09-27T16:06:39.685Z,31.00
2018-09-27T16:09:08.793Z,30.20
2018-09-27T16:11:36.859Z,30.00
2018-09-27T16:14:05.171Z,29.40
2018-09-27T16:16:33.714Z,29.10
2018-09-27T16:19:02.097Z,29.70
2018-09-27T16:21:30.584Z,29.80
2018-09-27T16:23:58.669Z,34.40
2018-09-27T16:26:27.144Z,36.60
2018-09-27T16:28:55.743Z,36.80
2018-09-27T16:31:23.784Z,37.60
2018-09-27T16:33:52.415Z,38.00
2018-09-27T16:36:20.799Z,38.40
2018-09-27T16:38:48.623Z,38.60
2018-09-27T16:41:16.806Z,39.00
2018-09-27T16:43:44.728Z,39.60
2018-09-27T16:46:12.515Z,40.20
2018-09-27T16:48:40.716Z,40.70
2018-09-27T16:51:09.238Z,41.60
2018-09-27T16:53:37.866Z,42.60
2018-09-27T16:58:17.245Z,43.90
2018-09-27T17:00:47.172Z,44.40
2018-09-27T17:03:16.210Z,46.10
2018-09-27T17:05:44.701Z,47.40
2018-09-27T17:08:14.592Z,49.10
2018-09-27T17:10:43.641Z,50.50
2018-09-27T17:13:11.476Z,51.70
2018-09-27T17:15:39.743Z,52.30
2018-09-27T17:18:07.989Z,52.90
2018-09-27T17:20:36.119Z,53.60
2018-09-27T17:23:04.338Z,54.50
2018-09-27T17:25:34.667Z,54.80
2018-09-27T17:28:03.245Z,54.80
2018-09-27T17:30:31.257Z,55.30
2018-09-27T17:33:02.034Z,55.60
2018-09-27T17:35:30.406Z,55.90
2018-09-27T17:38:02.507Z,56.30
2018-09-27T17:40:34.389Z,56.80
2018-09-27T17:43:06.622Z,57.60
2018-09-27T17:45:36.983Z,56.80
2018-09-27T17:48:05.763Z,56.90
2018-09-27T17:50:35.463Z,56.20
2018-09-27T17:53:05.637Z,54.80
2018-09-27T17:55:34.944Z,54.60
2018-09-27T17:58:04.743Z,55.20
2018-09-27T18:00:32.566Z,56.50
2018-09-27T18:03:01.649Z,58.20
2018-09-27T18:05:31.058Z,58.70
2018-09-27T18:08:01.993Z,59.40
2018-09-27T18:10:32.197Z,58.60
2018-09-27T18:13:01.952Z,58.70
2018-09-27T18:18:56.743Z,59.80
2018-09-27T18:21:24.777Z,59.10
2018-09-27T18:23:52.525Z,57.30
2018-09-27T18:26:21.750Z,56.90
2018-09-27T18:28:49.642Z,57.30
2018-09-27T18:31:17.722Z,57.90
2018-09-27T18:33:45.636Z,59.00
2018-09-27T18:36:13.405Z,59.40
2018-09-27T18:38:41.482Z,60.10
2018-09-27T18:41:10.178Z,61.40
2018-09-27T18:43:38.133Z,63.40
2018-09-27T18:46:07.067Z,64.10
2018-09-27T18:48:35.350Z,64.90
2018-09-27T18:51:03.531Z,65.10
2018-09-27T18:53:32.169Z,65.30
2018-09-27T18:56:00.001Z,65.60
2018-09-27T19:01:02.218Z,66.60
2018-09-27T19:03:32.383Z,66.80
2018-09-27T19:06:02.893Z,66.70
2018-09-27T19:08:37.513Z,67.50
2018-09-27T19:11:05.478Z,67.80
2018-09-27T19:13:33.765Z,67.60
2018-09-27T19:16:02.021Z,67.50
2018-09-27T19:18:32.483Z,67.80
2018-09-27T19:21:00.481Z,67.90
2018-09-27T19:23:29.496Z,68.00
2018-09-27T19:25:58.386Z,67.70
2018-09-27T19:28:30.890Z,67.90
2018-09-27T19:34:00.418Z,69.10
2018-09-27T19:36:44.765Z,69.60
2018-09-27T19:39:17.439Z,70.00
2018-09-27T19:41:54.817Z,70.30
2018-09-27T19:44:33.485Z,70.60
2018-09-27T19:55:15.253Z,71.00
2018-09-27T19:57:44.382Z,71.30
2018-09-27T20:00:12.639Z,71.60
2018-09-27T20:02:40.936Z,71.90
2018-09-27T20:05:28.744Z,72.10
2018-09-27T20:07:57.122Z,72.20
2018-09-27T20:10:25.449Z,72.60
2018-09-27T20:12:54.118Z,72.70
2018-09-27T20:15:22.625Z,73.10
2018-09-27T20:17:51.789Z,73.60
2018-09-27T20:20:27.426Z,74.10
2018-09-27T20:31:12.526Z,74.60
2018-09-27T20:39:09.269Z,75.20
2018-09-27T20:47:10.810Z,75.10
2018-09-27T20:49:43.087Z,75.10
2018-09-27T20:55:01.675Z,75.70
2018-09-27T20:57:41.344Z,75.90
2018-09-27T21:03:56.328Z,76.40
2018-09-27T21:06:29.491Z,76.10
2018-09-27T21:08:57.551Z,76.10
2018-09-27T21:11:32.560Z,76.20
2018-09-27T21:14:00.849Z,76.60
2018-09-27T21:16:28.633Z,76.80
2018-09-27T21:18:56.731Z,77.00
2018-09-27T21:21:29.688Z,77.20
2018-09-27T21:23:57.504Z,77.00
2018-09-27T21:26:29.355Z,77.10
2018-09-27T21:29:01.981Z,76.90
2018-09-27T21:31:30.772Z,76.50
2018-09-27T21:33:59.985Z,77.00
2018-09-27T21:36:27.999Z,76.90
2018-09-27T21:39:02.572Z,77.30
2018-09-27T21:41:30.797Z,77.30
2018-09-27T21:43:58.977Z,77.20
2018-09-27T21:46:28.270Z,77.30
2018-09-27T21:48:55.973Z,77.40
2018-09-27T21:51:30.875Z,77.60
2018-09-27T21:54:04.888Z,77.70
2018-09-27T21:56:42.003Z,77.80
2018-09-27T21:59:18.881Z,77.60
2018-09-27T22:01:52.935Z,78.00
2018-09-27T22:04:20.605Z,79.30
2018-09-27T22:06:49.775Z,78.70
2018-09-27T22:09:17.453Z,78.80
2018-09-27T22:11:45.164Z,78.70
2018-09-27T22:14:13.232Z,78.90
2018-09-27T22:16:41.121Z,79.20
2018-09-27T22:19:09.370Z,79.10
2018-09-27T22:21:37.132Z,79.10
2018-09-27T22:24:04.828Z,79.40
2018-09-27T22:26:32.574Z,79.50
2018-09-27T22:29:00.457Z,79.60
2018-09-27T22:31:28.139Z,79.50
2018-09-27T22:33:56.129Z,79.40
2018-09-27T22:36:23.764Z,79.70
2018-09-27T22:38:51.412Z,79.30
2018-09-27T22:41:19.133Z,79.70
2018-09-27T22:43:46.755Z,79.90
2018-09-27T22:46:14.372Z,79.80
2018-09-27T22:48:42.017Z,80.10
2018-09-27T22:51:09.621Z,80.20
2018-09-27T22:53:37.248Z,80.30
2018-09-27T22:56:04.921Z,80.80
2018-09-27T22:58:32.610Z,81.20
2018-09-27T23:01:00.264Z,82.10
2018-09-27T23:03:27.953Z,81.90
2018-09-27T23:05:55.610Z,82.30
2018-09-27T23:08:23.517Z,82.80
2018-09-27T23:10:51.156Z,83.40
2018-09-27T23:13:18.796Z,83.10
2018-09-27T23:15:46.420Z,83.00
2018-09-27T23:18:14.085Z,82.90
2018-09-27T23:20:41.751Z,82.60
2018-09-27T23:23:09.428Z,82.40
2018-09-27T23:25:37.108Z,82.40
2018-09-27T23:28:04.760Z,82.40
2018-09-27T23:30:32.376Z,82.50
2018-09-27T23:33:00.021Z,82.20
2018-09-27T23:35:27.654Z,82.20
2018-09-27T23:37:55.356Z,82.00
2018-09-27T23:40:23.097Z,82.10
2018-09-27T23:42:50.741Z,82.20
2018-09-27T23:45:18.489Z,82.20
2018-09-27T23:47:46.298Z,82.20
2018-09-27T23:50:14.229Z,82.20
2018-09-27T23:52:41.873Z,81.90
2018-09-27T23:55:09.580Z,82.10
2018-09-27T23:57:37.204Z,82.00
